ADDS METAR Data INFO
IDs: Format: Raw Decoded Include TAF

Data at: 1746 UTC 21 Oct 2017

KISM 211656Z 09014KT 10SM SCT050 29/20 A3016 RMK AO2 SLP213 T02940200
KISM 211556Z 09015G20KT 10SM CLR 29/19 A3017 RMK AO2 SLP216 T02940194
KISM 211456Z 09009G18KT 10SM CLR 28/18 A3017 RMK AO2 SLP218 T02780178 51015
KISM 211356Z 07011KT 10SM CLR 27/18 A3016 RMK AO2 SLP216 T02670183
KISM 211256Z 08006KT 10SM CLR 24/19 A3015 RMK AO2 SLP212 T02390194
KISM 211156Z 08007KT 10SM CLR 22/19 A3013 RMK AO2 SLP203 T02220194 10233 20211 53012
KISM 210956Z AUTO 04004KT 10SM CLR 22/21 A3010 RMK AO2 SLP194 T02220206
KISM 210856Z AUTO 04003KT 10SM CLR 23/21 A3009 RMK AO2 SLP191 T02280206 55005
KISM 210756Z AUTO 07006KT 10SM CLR 23/21 A3008 RMK AO2 SLP189 T02330206
KISM 210656Z AUTO 07007KT 10SM FEW029 23/21 A3009 RMK AO2 SLP192 T02330211
KISM 210556Z AUTO 08007KT 10SM CLR 23/21 A3011 RMK AO2 SLP196 60000 T02330211 10256 20228 58009
KISM 210456Z AUTO 05004KT 10SM CLR 23/21 A3012 RMK AO2 SLP200 T02330211 403000228
KISM 210356Z AUTO 07005KT 10SM FEW030 23/21 A3013 RMK AO2 SLP205 T02330211
KISM 210256Z AUTO 07007KT 10SM FEW028 SCT034 BKN050 24/21 A3013 RMK AO2 RAB27E38 SLP205 P0000 60000 T02390211 53009
KISM 210156Z 06006KT 10SM CLR 24/ A3012 RMK AO2 SLP200 T0244
KISM 210056Z 06008KT 10SM CLR 25/20 A3011 RMK AO2 SLP198 T02500200
KISM 202356Z 06010KT 10SM CLR 26/20 A3011 RMK AO2 SLP196 T02560200 10300 20256 53009
KISM 202256Z 06012KT 10SM CLR 27/19 A3009 RMK AO2 SLP190 T02670194
KISM 202156Z 07013KT 10SM FEW002 28/19 A3008 RMK AO2 SLP187 T02780189
KISM 202140Z 07013G20KT 10SM FEW002 28/19 A3007 RMK AO2
KISM 202056Z 06014KT 10SM FEW045 28/19 A3008 RMK AO2 SLP186 T02830189 56010
KISM 201956Z 09012KT 10SM FEW045 BKN055 29/19 A3008 RMK AO2 SLP188 T02890189
KISM 201856Z 06011G18KT 10SM BKN050 29/19 A3009 RMK AO2 SLP189 T02890189
KISM 201756Z 08015KT 10SM OVC047 29/19 A3011 RMK AO2 SLP196 T02890189 10294 20233 58014
KISM 201656Z 06012G19KT 10SM BKN043 29/19 A3013 RMK AO2 SLP205 T02940194
KISM 201556Z 08012G18KT 10SM OVC037 29/19 A3014 RMK AO2 SLP209 T02890194
KISM 201456Z 08015KT 10SM FEW040 28/19 A3015 RMK AO2 SLP210 T02780194 50005
KISM 201356Z 07012G19KT 10SM CLR 27/20 A3015 RMK AO2 SLP211 T02720200
KISM 201256Z 07008KT 10SM CLR 25/21 A3015 RMK AO2 SLP209 T02500206
KISM 201156Z 05005KT 10SM CLR 23/20 A3013 RMK AO2 SLP205 T02330200 10233 20228 53010
KISM 201056Z 03004KT 10SM CLR 23/21 A3012 RMK AO2 SLP201 T02280206
KISM 200956Z AUTO 04003KT 10SM CLR 23/21 A3011 RMK AO2 SLP196 T02280206
KISM 200856Z AUTO 02003KT 10SM CLR 23/21 A3010 RMK AO2 SLP195 T02280211 55005
KISM 200756Z AUTO 03003KT 10SM SCT037 BKN045 BKN050 23/21 A3010 RMK AO2 SLP194 T02330211
KISM 200656Z AUTO 05005KT 10SM CLR 23/21 A3011 RMK AO2 SLP196 T02330211
KISM 200556Z AUTO 04005KT 10SM CLR 23/22 A3012 RMK AO2 SLP200 T02330217 10256 20233 58000